Time;durP1;ratioP1;P1;durP2;ratioP2;P2;SDS_P1;SDS_P2;PMS_P1;PMS_P2;Temp;Humidity;BMP_temperature;BMP_pressure;BME280_temperature;BME280_humidity;BME280_pressure;Samples;Min_cycle;Max_cycle;Signal;HPM_P1;HPM_P2
2021/01/14 00:01:40;;;;;;;;;;;2.30;99.90;;;1.21;92.68;95063.78;10553298;28;2253;-82
2021/01/14 00:06:41;;;;;;;;;;;2.30;99.90;;;1.17;92.79;95062.66;10571404;28;2378;-80
2021/01/14 00:11:43;;;;;;;;;;;2.20;99.90;;;1.17;92.41;95055.53;10541300;28;2389;-81
2021/01/14 00:16:45;;;;;;;;;;;3.80;99.90;;;1.13;92.81;95080.84;10550083;28;2249;-80
2021/01/14 00:21:47;;;;;;;;;;;2.20;99.90;;;1.14;92.82;95084.28;10565490;28;2287;-81
2021/01/14 00:26:48;;;;;;;;;;;2.80;99.90;;;1.13;92.63;95085.34;10539764;28;2335;-80
2021/01/14 00:31:50;;;;;;;;;;;2.20;99.90;;;1.11;92.75;95069.69;10571576;28;2365;-81
2021/01/14 00:42:12;;;;;;;;;;;2.10;99.90;;;1.11;92.66;95090.06;10548936;28;2316;-81
2021/01/14 00:47:14;;;;;;;;;;;2.20;99.90;;;1.11;93.02;95104.09;10553817;28;2312;-79
2021/01/14 00:52:16;;;;;;;;;;;2.20;99.90;;;1.08;93.24;95113.31;10547824;28;2402;-79
2021/01/14 00:57:18;;;;;;;;;;;2.20;99.90;;;1.00;93.32;95099.59;10559145;28;2267;-82
2021/01/14 01:02:19;;;;;;;;;;;3.50;99.90;;;0.92;92.75;95116.63;10547034;28;2328;-79
2021/01/14 01:07:22;;;;;;;;;;;2.40;99.90;;;0.89;93.15;95127.69;10576453;28;2160;-81
2021/01/14 01:12:24;;;;;;;;;;;4.10;99.90;;;0.84;92.80;95132.84;10569288;28;2002;-82
2021/01/14 01:17:25;;;;;;;;;;;2.70;99.90;;;0.76;93.17;95119.94;10585480;28;2426;-79
2021/01/14 01:22:27;;;;;;;;;;;2.30;99.90;;;0.75;93.15;95134.19;10565152;28;2182;-81
2021/01/14 01:27:29;;;;;;;;;;;1.80;99.90;;;0.81;92.85;95160.56;10568142;28;2739;-81
2021/01/14 01:32:31;;;;;;;;;;;1.80;99.90;;;0.78;92.59;95152.28;10571531;28;2392;-80
2021/01/14 01:37:33;;;;;;;;;;;1.80;99.90;;;0.77;92.33;95174.50;10571754;28;2319;-80
2021/01/14 01:42:34;;;;;;;;;;;1.90;99.90;;;0.78;92.24;95165.50;10569425;28;2394;-80
2021/01/14 01:47:37;;;;;;;;;;;1.90;99.90;;;0.79;91.79;95164.47;10554405;28;2303;-81
2021/01/14 01:52:38;;;;;;;;;;;1.80;99.90;;;0.70;91.46;95164.00;10543705;28;2185;-80
2021/01/14 01:57:40;;;;;;;;;;;3.20;99.90;;;0.70;91.24;95157.88;10553026;28;2344;-80
2021/01/14 02:02:42;;;;;;;;;;;1.80;99.90;;;0.71;90.82;95157.69;10537972;28;2327;-79
2021/01/14 02:07:44;;;;;;;;;;;1.80;99.90;;;0.70;90.47;95157.88;10541617;28;2324;-80
2021/01/14 02:12:45;;;;;;;;;;;1.80;99.90;;;0.65;89.35;95149.84;10545426;28;2197;-82
2021/01/14 02:17:47;;;;;;;;;;;1.80;99.90;;;0.58;89.20;95154.44;10567422;28;2413;-80
2021/01/14 02:22:49;;;;;;;;;;;2.60;99.90;;;0.57;88.29;95180.03;10559366;28;2304;-79
2021/01/14 02:27:51;;;;;;;;;;;1.70;99.90;;;0.57;88.27;95168.66;10541074;28;2510;-80
2021/01/14 02:32:52;;;;;;;;;;;2.70;99.90;;;0.50;87.89;95164.28;10561514;28;2386;-81
2021/01/14 02:37:54;;;;;;;;;;;1.60;99.90;;;0.56;87.34;95175.00;10563744;28;2450;-82
2021/01/14 02:42:56;;;;;;;;;;;1.60;99.90;;;0.60;87.62;95194.69;10570021;28;2320;-80
2021/01/14 02:47:57;;;;;;;;;;;1.70;99.90;;;0.62;86.88;95187.31;10562556;28;2513;-80
2021/01/14 02:52:59;;;;;;;;;;;1.70;99.90;;;0.67;87.49;95200.69;10565115;28;2495;-79
2021/01/14 02:58:03;;;;;;;;;;;2.10;99.90;;;0.68;87.49;95176.63;10558653;28;2820;-80
2021/01/14 03:03:05;;;;;;;;;;;1.80;99.90;;;0.63;88.77;95178.34;10554946;28;2539;-81
2021/01/14 03:08:07;;;;;;;;;;;1.80;99.90;;;0.66;88.56;95199.06;10549483;28;2505;-81
2021/01/14 03:13:09;;;;;;;;;;;3.20;99.90;;;0.67;88.59;95196.19;10557265;28;2641;-81
2021/01/14 03:18:10;;;;;;;;;;;1.80;99.90;;;0.67;88.70;95185.59;10574826;28;2527;-82
2021/01/14 03:23:13;;;;;;;;;;;1.80;99.90;;;0.64;88.30;95193.19;10557577;28;2483;-80
2021/01/14 03:28:15;;;;;;;;;;;1.70;99.90;;;0.66;88.06;95209.66;10554212;28;2493;-82
2021/01/14 03:33:17;;;;;;;;;;;1.70;99.90;;;0.63;87.39;95204.78;10578289;27;2078;-82
2021/01/14 03:38:18;;;;;;;;;;;2.90;99.90;;;0.60;86.08;95205.25;10549791;28;2455;-80
2021/01/14 03:43:20;;;;;;;;;;;4.10;99.90;;;0.56;85.79;95204.06;10552215;28;2372;-79
2021/01/14 03:48:22;;;;;;;;;;;1.70;99.90;;;0.56;85.53;95198.78;10549009;28;2403;-80
2021/01/14 03:53:23;;;;;;;;;;;1.60;99.90;;;0.46;85.49;95209.91;10556725;28;2901;-81
2021/01/14 03:58:25;;;;;;;;;;;2.10;99.90;;;0.45;86.33;95217.06;10546162;28;2387;-81
2021/01/14 04:03:27;;;;;;;;;;;1.60;99.90;;;0.42;86.12;95225.41;10560900;28;2494;-82
2021/01/14 04:08:29;;;;;;;;;;;1.50;99.90;;;0.40;86.12;95232.78;10561672;28;2500;-81
2021/01/14 04:13:30;;;;;;;;;;;1.50;99.90;;;0.42;86.11;95236.00;10564712;28;2518;-79
2021/01/14 04:18:32;;;;;;;;;;;2.90;99.90;;;0.41;86.20;95234.38;10569792;28;2439;-82
2021/01/14 04:23:34;;;;;;;;;;;1.50;99.90;;;0.39;86.08;95244.38;10564071;28;2423;-83
2021/01/14 04:28:36;;;;;;;;;;;2.90;99.90;;;0.43;86.00;95257.94;10530845;28;2344;-80
2021/01/14 04:33:37;;;;;;;;;;;1.50;99.90;;;0.36;86.00;95263.31;10545172;28;2274;-82
2021/01/14 04:38:39;;;;;;;;;;;1.50;99.90;;;0.38;86.29;95266.56;10548434;28;2415;-81
2021/01/14 04:43:41;;;;;;;;;;;1.40;99.90;;;0.39;86.42;95264.72;10547564;28;2446;-80
2021/01/14 04:48:43;;;;;;;;;;;1.70;99.90;;;0.32;86.77;95266.63;10547386;28;2514;-80
2021/01/14 04:53:45;;;;;;;;;;;1.40;99.90;;;0.29;88.04;95273.16;10544051;28;2505;-79
2021/01/14 04:58:46;;;;;;;;;;;1.40;99.90;;;0.22;88.64;95283.81;10548511;28;1967;-81
2021/01/14 05:03:48;;;;;;;;;;;1.30;99.90;;;0.15;89.95;95295.50;10551276;28;2466;-79
2021/01/14 05:08:50;;;;;;;;;;;1.30;99.90;;;-0.18;92.16;95296.66;10565293;28;2407;-80
2021/01/14 05:13:52;;;;;;;;;;;1.10;99.90;;;-0.30;92.16;95307.13;10552218;28;2553;-83
2021/01/14 05:18:54;;;;;;;;;;;1.00;99.90;;;-0.32;92.69;95303.91;10547741;28;2537;-82
2021/01/14 05:23:55;;;;;;;;;;;0.80;99.90;;;-0.27;92.81;95303.22;10564442;28;2438;-82
2021/01/14 05:28:57;;;;;;;;;;;0.80;99.90;;;-0.18;92.70;95309.06;10558285;28;2470;-81
2021/01/14 05:34:00;;;;;;;;;;;0.90;99.90;;;-0.13;92.32;95309.19;10572447;28;2483;-80
2021/01/14 05:39:04;;;;;;;;;;;0.90;99.90;;;-0.12;91.50;95314.28;10562171;28;2328;-79
2021/01/14 05:44:06;;;;;;;;;;;1.00;99.90;;;-0.03;91.17;95306.88;10553592;28;2415;-81
2021/01/14 05:49:08;;;;;;;;;;;1.40;99.90;;;-0.02;90.83;95314.56;10562632;28;2273;-81
2021/01/14 05:54:11;;;;;;;;;;;1.10;99.90;;;0.03;90.10;95328.97;10561597;28;2422;-81
2021/01/14 05:59:14;;;;;;;;;;;1.10;99.90;;;0.00;89.33;95322.28;10559659;28;2360;-80
2021/01/14 06:04:15;;;;;;;;;;;1.10;99.90;;;0.02;88.55;95320.22;10568682;28;2498;-80
2021/01/14 06:09:21;;;;;;;;;;;1.10;99.90;;;-0.01;88.56;95332.03;10568516;28;2438;-78
2021/01/14 06:14:23;;;;;;;;;;;2.40;99.90;;;0.02;88.04;95345.84;10548274;28;2415;-81
2021/01/14 06:19:25;;;;;;;;;;;3.10;99.90;;;-0.03;87.77;95354.44;10567303;28;2430;-80
2021/01/14 06:24:29;;;;;;;;;;;2.10;99.90;;;0.03;85.70;95384.47;10548017;28;2472;-79
2021/01/14 06:29:31;;;;;;;;;;;2.70;99.90;;;0.01;85.29;95391.81;10568949;28;2679;-80
2021/01/14 06:34:33;;;;;;;;;;;2.00;99.90;;;-0.03;86.49;95394.06;10564572;28;2437;-80
2021/01/14 06:39:35;;;;;;;;;;;1.10;99.90;;;-0.07;85.21;95393.66;10573780;28;2462;-81
2021/01/14 06:44:36;;;;;;;;;;;1.00;99.90;;;-0.08;85.35;95407.91;10559712;28;2356;-80
2021/01/14 06:49:38;;;;;;;;;;;1.00;99.90;;;-0.03;86.39;95415.19;10564959;28;2582;-78
2021/01/14 06:54:42;;;;;;;;;;;1.00;99.90;;;-0.06;85.83;95418.28;10551662;28;2383;-83
2021/01/14 06:59:43;;;;;;;;;;;1.30;99.90;;;-0.08;85.87;95428.25;10563809;28;2485;-81
2021/01/14 07:04:45;;;;;;;;;;;1.00;99.90;;;-0.09;85.27;95445.94;10553970;28;2295;-81
2021/01/14 07:09:47;;;;;;;;;;;1.00;99.90;;;-0.05;85.35;95441.84;10571805;28;2343;-81
2021/01/14 07:14:49;;;;;;;;;;;1.00;99.90;;;-0.06;85.43;95445.50;10552190;28;1953;-81
2021/01/14 07:19:51;;;;;;;;;;;1.00;99.90;;;-0.08;85.34;95460.75;10577600;28;2457;-81
2021/01/14 07:24:53;;;;;;;;;;;1.50;99.90;;;-0.10;84.37;95467.28;10556396;28;2327;-81
2021/01/14 07:29:54;;;;;;;;;;;1.00;99.90;;;-0.06;85.19;95490.44;10537690;28;2319;-82
2021/01/14 07:34:57;;;;;;;;;;;1.00;99.90;;;-0.10;82.71;95486.59;10527236;28;2232;-82
2021/01/14 07:39:58;;;;;;;;;;;2.40;99.90;;;-0.08;83.70;95499.59;10550177;28;2186;-79
2021/01/14 07:45:00;;;;;;;;;;;1.00;99.90;;;-0.06;82.30;95518.69;10551990;28;2271;-80
2021/01/14 07:50:04;;;;;;;;;;;1.00;99.90;;;-0.08;82.67;95505.66;10536937;28;2039;-80
2021/01/14 07:55:07;;;;;;;;;;;2.20;99.90;;;-0.02;82.24;95496.09;10528529;28;2414;-81
2021/01/14 08:00:09;;;;;;;;;;;1.00;99.90;;;-0.08;82.61;95510.94;10519848;28;1900;-81
2021/01/14 08:05:11;;;;;;;;;;;2.60;99.90;;;-0.03;82.57;95534.91;10524291;28;2183;-81
2021/01/14 08:10:13;;;;;;;;;;;1.00;99.90;;;-0.02;83.14;95536.53;10515154;28;2319;-82
2021/01/14 08:15:14;;;;;;;;;;;2.80;99.90;;;-0.04;79.78;95543.88;10540326;28;2205;-83
2021/01/14 08:20:16;;;;;;;;;;;1.00;99.90;;;-0.03;80.86;95545.47;10536481;28;2306;-82
2021/01/14 08:25:18;;;;;;;;;;;1.50;99.90;;;-0.01;82.74;95558.47;10536678;28;2098;-80
2021/01/14 08:30:20;;;;;;;;;;;1.60;99.90;;;0.06;82.78;95561.06;10545659;28;2163;-81
2021/01/14 08:35:22;;;;;;;;;;;1.10;99.90;;;0.09;83.64;95555.38;10543139;28;2154;-80
2021/01/14 08:40:23;;;;;;;;;;;2.20;99.90;;;0.06;82.05;95558.44;10537844;28;2288;-81
2021/01/14 08:45:25;;;;;;;;;;;1.10;99.90;;;0.08;81.68;95582.84;10541751;28;2279;-82
2021/01/14 08:50:27;;;;;;;;;;;1.10;99.90;;;0.09;81.38;95592.38;10535066;28;2264;-84
2021/01/14 08:55:29;;;;;;;;;;;1.10;99.90;;;0.11;79.92;95614.13;10513392;28;2399;-81
2021/01/14 09:00:32;;;;;;;;;;;1.20;99.90;;;0.13;78.72;95626.13;10523200;28;2283;-83
2021/01/14 09:05:33;;;;;;;;;;;2.80;99.90;;;0.17;78.98;95624.66;10550389;28;1944;-83
2021/01/14 09:10:37;;;;;;;;;;;1.20;99.90;;;0.18;79.19;95625.47;10534136;28;2366;-83
2021/01/14 09:15:40;;;;;;;;;;;1.20;99.90;;;0.23;79.03;95633.56;10545560;28;2169;-84
2021/01/14 09:20:42;;;;;;;;;;;1.10;99.90;;;0.16;78.15;95651.31;10550045;28;2374;-83
2021/01/14 09:25:44;;;;;;;;;;;1.20;99.90;;;0.20;77.97;95644.59;10551410;28;2287;-82
2021/01/14 09:30:45;;;;;;;;;;;3.30;99.90;;;0.12;76.94;95655.38;10547281;28;2307;-81
2021/01/14 09:35:48;;;;;;;;;;;1.20;99.90;;;0.17;77.99;95645.00;10561238;28;2319;-80
2021/01/14 09:40:53;;;;;;;;;;;1.20;99.90;;;0.22;77.78;95653.09;10565599;28;2247;-83
2021/01/14 09:45:56;;;;;;;;;;;1.50;99.90;;;0.26;77.53;95662.25;10543335;28;2276;-80
2021/01/14 09:50:58;;;;;;;;;;;3.00;99.90;;;0.31;78.30;95670.31;10541233;28;2370;-80
2021/01/14 09:56:00;;;;;;;;;;;1.30;99.90;;;0.29;77.09;95675.03;10573292;28;1905;-80
2021/01/14 10:01:06;;;;;;;;;;;2.10;99.90;;;0.24;78.33;95672.19;10550407;28;2338;-81
2021/01/14 10:06:09;;;;;;;;;;;1.40;99.90;;;0.39;77.65;95675.38;10559473;28;2010;-80
2021/01/14 10:11:11;;;;;;;;;;;1.30;99.90;;;0.39;76.64;95680.69;10556614;28;2177;-79
2021/01/14 10:16:13;;;;;;;;;;;1.40;99.90;;;0.44;77.27;95683.47;10556241;28;2161;-79
2021/01/14 10:21:15;;;;;;;;;;;1.40;99.90;;;0.24;79.53;95685.41;10545620;28;2229;-81
2021/01/14 10:26:16;;;;;;;;;;;2.40;99.90;;;0.14;79.09;95679.78;10536236;28;2064;-82
2021/01/14 10:31:21;;;;;;;;;;;1.20;99.90;;;0.30;76.54;95681.94;10550194;28;2415;-80
2021/01/14 10:36:23;;;;;;;;;;;1.10;99.90;;;0.36;74.44;95690.84;10570532;28;2297;-79
2021/01/14 10:41:26;;;;;;;;;;;1.40;99.90;;;0.10;72.24;95686.50;10572935;28;2271;-81
2021/01/14 10:46:28;;;;;;;;;;;1.30;99.90;;;0.13;73.87;95704.59;10535413;28;2129;-79
2021/01/14 10:51:30;;;;;;;;;;;3.50;99.90;;;-0.05;72.97;95702.63;10524046;28;1697;-82
2021/01/14 10:56:32;;;;;;;;;;;1.60;99.90;;;-0.11;74.02;95709.56;10552255;28;1983;-80
2021/01/14 11:01:34;;;;;;;;;;;0.90;99.90;;;-0.08;74.52;95711.78;10539460;28;1816;-78
2021/01/14 11:06:39;;;;;;;;;;;0.90;99.90;;;-0.06;75.39;95715.03;10555445;27;1240;-80
2021/01/14 11:11:40;;;;;;;;;;;2.10;99.90;;;-0.11;76.82;95717.47;10545294;28;1672;-81
2021/01/14 11:16:42;;;;;;;;;;;1.30;99.90;;;-0.08;76.92;95719.69;10575376;28;1955;-79
2021/01/14 11:21:44;;;;;;;;;;;2.50;99.90;;;-0.13;75.40;95726.63;10552374;28;1634;-79
2021/01/14 11:26:46;;;;;;;;;;;2.40;99.90;;;-0.15;75.85;95741.88;10581826;27;1724;-82
2021/01/14 11:31:48;;;;;;;;;;;2.00;99.90;;;-0.13;75.66;95740.63;10541362;28;1222;-82
2021/01/14 11:36:51;;;;;;;;;;;0.90;99.90;;;-0.32;73.60;95744.13;10529301;28;1913;-79
2021/01/14 11:41:53;;;;;;;;;;;2.20;99.90;;;-0.46;75.75;95751.28;10543364;28;1231;-80
2021/01/14 11:46:55;;;;;;;;;;;0.60;99.90;;;-0.43;76.07;95760.63;10542361;28;1683;-80
2021/01/14 11:51:57;;;;;;;;;;;2.40;99.90;;;-0.47;76.92;95762.06;10553393;28;1187;-81
2021/01/14 11:56:59;;;;;;;;;;;1.20;99.90;;;-0.63;78.65;95766.75;10541960;28;1913;-80
2021/01/14 12:02:04;;;;;;;;;;;2.80;99.90;;;-0.65;81.52;95767.94;10553616;28;1570;-80
2021/01/14 12:07:08;;;;;;;;;;;1.60;99.90;;;-0.67;82.32;95783.19;10569994;28;1276;-79
2021/01/14 12:12:14;;;;;;;;;;;0.40;99.90;;;-0.75;82.45;95784.19;10561877;28;1630;-79
2021/01/14 12:17:16;;;;;;;;;;;0.70;99.90;;;-0.67;83.33;95781.34;10548381;28;1902;-80
2021/01/14 12:22:19;;;;;;;;;;;0.40;99.90;;;-0.70;84.22;95776.50;10551475;28;1491;-79
2021/01/14 12:27:21;;;;;;;;;;;2.10;99.90;;;-0.80;83.98;95770.78;10550850;28;1550;-82
2021/01/14 12:32:23;;;;;;;;;;;0.80;99.90;;;-0.84;83.81;95759.81;10582545;28;1555;-79
2021/01/14 12:37:25;;;;;;;;;;;0.30;99.90;;;-0.85;83.36;95767.94;10540706;28;1985;-80
2021/01/14 12:42:27;;;;;;;;;;;0.20;99.90;;;-0.85;82.46;95755.56;10534550;28;1278;-79
2021/01/14 12:47:29;;;;;;;;;;;0.10;99.90;;;-0.77;82.17;95759.81;10551578;28;1716;-81
2021/01/14 12:52:31;;;;;;;;;;;1.50;99.90;;;-0.92;79.62;95762.66;10545592;28;1122;-81
2021/01/14 12:57:33;;;;;;;;;;;0.90;99.90;;;-1.01;80.50;95758.59;10541559;28;1913;-81
2021/01/14 13:02:35;;;;;;;;;;;1.20;99.90;;;-0.95;81.16;95757.00;10552548;28;1673;-79
2021/01/14 13:07:37;;;;;;;;;;;1.40;99.90;;;-1.02;81.23;95751.69;10539871;28;1291;-81
2021/01/14 13:12:39;;;;;;;;;;;1.60;99.90;;;-0.95;81.31;95751.72;10545051;28;1506;-77
2021/01/14 13:17:41;;;;;;;;;;;0.00;99.90;;;-0.89;81.63;95756.16;10583310;28;1922;-81
2021/01/14 13:22:43;;;;;;;;;;;1.90;99.90;;;-0.93;81.43;95747.03;10571034;28;1262;-80
2021/01/14 13:27:46;;;;;;;;;;;0.70;99.90;;;-1.01;80.83;95755.97;10522731;28;1665;-80
2021/01/14 13:32:48;;;;;;;;;;;1.60;99.90;;;-1.00;81.52;95759.41;10566657;28;1192;-81
2021/01/14 13:37:49;;;;;;;;;;;1.00;99.90;;;-1.06;82.54;95758.41;10548449;28;1996;-78
2021/01/14 13:42:51;;;;;;;;;;;0.00;99.90;;;-0.93;82.65;95749.69;10545550;28;1737;-80
2021/01/14 13:47:56;;;;;;;;;;;0.20;99.90;;;-0.92;80.88;95757.38;10564068;28;1602;-81
2021/01/14 13:52:59;;;;;;;;;;;0.50;99.90;;;-0.82;81.72;95752.53;10543713;28;1601;-81
2021/01/14 13:58:04;;;;;;;;;;;1.40;99.90;;;-0.89;80.95;95749.09;10563349;28;1964;-83
2021/01/14 14:03:07;;;;;;;;;;;0.20;99.90;;;-0.92;81.18;95753.94;10559068;28;1310;-81
2021/01/14 14:08:08;;;;;;;;;;;0.10;99.90;;;-0.89;79.73;95758.78;10547663;28;1592;-80
2021/01/14 14:13:10;;;;;;;;;;;1.90;99.90;;;-0.73;80.17;95761.03;10549573;28;1226;-82
2021/01/14 14:18:13;;;;;;;;;;;1.90;99.90;;;-0.58;79.81;95759.00;10548218;28;1965;-82
2021/01/14 14:23:19;;;;;;;;;;;0.20;99.90;;;-0.59;79.03;95772.41;10560438;28;1357;-81
2021/01/14 14:28:35;;;;;;;;;;;;;;;;;;;;;
2021/01/14 14:33:57;;;;;;;;;;;1.30;99.90;;;-0.68;79.23;95773.66;10575454;28;1196;-81
2021/01/14 14:39:39;;;;;;;;;;;0.40;99.90;;;-0.59;79.00;95777.69;10560790;28;1980;-82
2021/01/14 14:44:41;;;;;;;;;;;0.40;99.90;;;-0.61;78.46;95775.25;10576050;28;1550;-80
2021/01/14 14:49:43;;;;;;;;;;;0.30;99.90;;;-0.82;78.45;95773.66;10558212;28;1366;-82
2021/01/14 14:54:45;;;;;;;;;;;2.30;99.90;;;-1.03;79.71;95784.34;10540614;28;1491;-82
2021/01/14 14:59:48;;;;;;;;;;;1.80;99.90;;;-1.03;79.83;95780.91;10539253;28;1918;-81
2021/01/14 15:04:50;;;;;;;;;;;0.10;99.90;;;-1.02;80.57;95782.53;10563249;28;1464;-81
2021/01/14 15:09:52;;;;;;;;;;;0.00;99.90;;;-1.00;79.77;95786.63;10550488;28;1353;-80
2021/01/14 15:14:54;;;;;;;;;;;0.70;99.90;;;-1.04;79.97;95774.00;10537719;28;1729;-82
2021/01/14 15:19:56;;;;;;;;;;;0.00;99.90;;;-1.07;80.73;95777.06;10552591;28;1964;-81
2021/01/14 15:24:57;;;;;;;;;;;-0.10;99.90;;;-1.10;80.66;95786.19;10569991;28;1192;-81
2021/01/14 15:29:59;;;;;;;;;;;1.30;99.90;;;-1.00;81.00;95791.09;10563039;28;1321;-82
2021/01/14 15:35:03;;;;;;;;;;;0.50;99.90;;;-0.90;80.85;95809.94;10559480;28;1416;-82
2021/01/14 15:40:05;;;;;;;;;;;0.20;99.90;;;-0.84;80.14;95809.97;10572276;28;1890;-81
2021/01/14 15:45:10;;;;;;;;;;;0.20;99.90;;;-0.90;79.44;95805.47;10585301;28;1003;-81
2021/01/14 15:50:17;;;;;;;;;;;0.80;99.90;;;-0.88;79.83;95821.16;10559091;28;2004;-81
2021/01/14 15:55:26;;;;;;;;;;;0.80;99.90;;;-0.90;79.90;95807.31;10557612;28;1229;-81
2021/01/14 16:00:29;;;;;;;;;;;1.00;99.90;;;-0.98;79.38;95831.25;10572465;28;1961;-78
2021/01/14 16:05:31;;;;;;;;;;;1.40;99.90;;;-1.02;79.54;95825.56;10580351;28;1121;-79
2021/01/14 16:10:33;;;;;;;;;;;0.10;99.90;;;-1.10;80.65;95823.91;10583408;28;1458;-80
2021/01/14 16:15:37;;;;;;;;;;;0.20;99.90;;;-1.13;80.33;95829.63;10571577;28;1525;-80
2021/01/14 16:20:39;;;;;;;;;;;-0.10;99.90;;;-1.02;80.47;95843.22;10547186;28;1906;-82
2021/01/14 16:25:43;;;;;;;;;;;0.00;99.90;;;-1.00;80.47;95843.84;10567349;28;1586;-80
2021/01/14 16:30:46;;;;;;;;;;;1.00;99.90;;;-0.98;81.25;95833.91;10539872;28;1266;-80
2021/01/14 16:35:53;;;;;;;;;;;1.10;99.90;;;-0.98;80.48;95831.25;10537557;28;1543;-81
2021/01/14 16:40:58;;;;;;;;;;;0.00;99.90;;;-0.98;79.88;95836.53;10539296;28;1926;-80
2021/01/14 16:46:02;;;;;;;;;;;0.00;99.90;;;-1.03;80.59;95833.69;10565841;28;1681;-82
2021/01/14 16:51:05;;;;;;;;;;;0.30;99.90;;;-1.00;79.33;95836.75;10559921;28;1715;-82
2021/01/14 16:56:08;;;;;;;;;;;0.30;99.90;;;-1.11;79.91;95837.31;10548776;28;1597;-81
2021/01/14 17:01:14;;;;;;;;;;;-0.10;99.90;;;-1.12;80.33;95836.50;10558582;28;1918;-81
2021/01/14 17:06:17;;;;;;;;;;;1.70;99.90;;;-1.12;81.93;95825.97;10560606;28;1613;-80
2021/01/14 17:11:19;;;;;;;;;;;-0.10;99.90;;;-1.09;81.17;95833.47;10570190;28;1291;-79
2021/01/14 17:16:22;;;;;;;;;;;-0.10;99.90;;;-1.10;81.03;95838.94;10545874;28;1454;-81
2021/01/14 17:21:26;;;;;;;;;;;0.00;99.90;;;-1.07;79.69;95835.09;10568352;28;1913;-81
2021/01/14 17:26:31;;;;;;;;;;;0.90;99.90;;;-1.22;80.07;95825.50;10570616;28;1354;-82
2021/01/14 17:31:39;;;;;;;;;;;0.10;99.90;;;-1.32;81.55;95814.53;10572988;28;1748;-80
2021/01/14 17:42:53;;;;;;;;;;;2.30;99.90;;;-1.17;82.39;95812.53;10552236;28;1536;-81
2021/01/14 17:47:57;;;;;;;;;;;0.70;99.90;;;-1.09;79.92;95812.34;10567275;28;1752;-81
2021/01/14 17:53:06;;;;;;;;;;;0.40;99.90;;;-1.10;81.55;95804.66;10556730;28;1361;-82
2021/01/14 18:04:00;;;;;;;;;;;0.00;99.90;;;-1.14;81.17;95800.81;10572446;28;1617;-81
2021/01/14 18:09:08;;;;;;;;;;;-0.10;99.90;;;-1.26;81.50;95797.94;10574068;28;1382;-81
2021/01/14 18:14:11;;;;;;;;;;;-0.10;99.90;;;-1.39;81.00;95803.97;10546554;28;1602;-82
2021/01/14 18:19:13;;;;;;;;;;;1.50;99.90;;;-1.53;81.07;95790.94;10599797;28;1886;-81
2021/01/14 18:24:15;;;;;;;;;;;0.80;99.90;;;-1.74;81.38;95790.03;10560117;28;1455;-80
2021/01/14 18:29:27;;;;;;;;;;;-0.50;99.90;;;-1.94;82.92;95789.16;10580707;28;1402;-80
2021/01/14 18:34:57;;;;;;;;;;;-0.80;99.90;;;-2.08;83.77;95780.38;10569557;28;1718;-81
2021/01/14 18:45:50;;;;;;;;;;;-1.00;99.90;;;-2.38;84.04;95771.88;10564808;28;1989;-80
2021/01/14 18:56:46;;;;;;;;;;;-1.30;99.90;;;-2.47;86.27;95780.94;10555609;28;1322;-82
2021/01/14 19:01:49;;;;;;;;;;;-1.40;99.90;;;-2.51;86.96;95782.31;10563963;28;1962;-82
2021/01/14 19:06:51;;;;;;;;;;;0.50;99.90;;;-2.57;87.18;95777.81;10549941;28;1386;-81
2021/01/14 19:11:56;;;;;;;;;;;-1.40;99.90;;;-2.61;86.85;95771.31;10534975;28;1676;-81
2021/01/14 19:16:59;;;;;;;;;;;-0.10;99.90;;;-2.61;87.44;95772.13;10538028;28;1964;-80
2021/01/14 19:22:03;;;;;;;;;;;0.30;99.90;;;-2.55;87.00;95762.63;10556627;28;1302;-78
2021/01/14 19:27:06;;;;;;;;;;;-1.40;99.90;;;-2.62;86.95;95764.41;10582040;28;1546;-82
2021/01/14 19:32:08;;;;;;;;;;;0.10;99.90;;;-2.70;87.01;95754.03;10553458;28;1590;-83
2021/01/14 19:37:13;;;;;;;;;;;-1.50;99.90;;;-2.68;87.76;95746.75;10539455;28;1954;-84
2021/01/14 19:42:15;;;;;;;;;;;0.20;99.90;;;-2.73;87.59;95748.16;10545340;28;1566;-83
2021/01/14 19:47:16;;;;;;;;;;;-1.50;99.90;;;-2.71;88.34;95747.97;10558108;28;1676;-82
2021/01/14 19:52:19;;;;;;;;;;;-1.60;99.90;;;-2.65;88.38;95744.56;10567865;28;1553;-81
2021/01/14 19:57:21;;;;;;;;;;;-0.70;99.90;;;-2.65;87.75;95749.03;10547008;28;1956;-81
2021/01/14 20:02:23;;;;;;;;;;;-1.50;99.90;;;-2.72;88.28;95748.97;10568102;28;1266;-81
2021/01/14 20:07:25;;;;;;;;;;;0.30;99.90;;;-2.70;88.49;95746.16;10561118;28;1500;-79
2021/01/14 20:12:27;;;;;;;;;;;-1.10;99.90;;;-2.71;88.80;95745.34;10563175;28;1392;-79
2021/01/14 20:17:29;;;;;;;;;;;-0.90;99.90;;;-2.76;88.11;95755.63;10566441;28;1922;-78
2021/01/14 20:22:30;;;;;;;;;;;-0.10;99.90;;;-2.77;88.22;95749.53;10576524;28;1092;-81
2021/01/14 20:27:32;;;;;;;;;;;-1.00;99.90;;;-2.80;88.06;95760.47;10584749;28;1554;-81
2021/01/14 20:32:37;;;;;;;;;;;-1.60;99.90;;;-2.91;89.00;95758.34;10562360;28;1258;-82
2021/01/14 20:37:43;;;;;;;;;;;-1.50;99.90;;;-2.89;88.70;95753.69;10551121;28;1969;-83
2021/01/14 20:49:19;;;;;;;;;;;-0.20;99.90;;;-2.89;88.41;95747.63;10521735;28;1713;-80
2021/01/14 20:54:21;;;;;;;;;;;-0.40;99.90;;;-2.87;88.35;95746.41;10520447;28;1585;-81
2021/01/14 20:59:33;;;;;;;;;;;-1.70;99.90;;;-2.87;88.05;95745.59;10541975;28;1987;-79
2021/01/14 21:04:38;;;;;;;;;;;-1.10;99.90;;;-2.87;88.48;95749.03;10518715;28;1574;-79
2021/01/14 21:09:40;;;;;;;;;;;-1.70;99.90;;;-2.88;88.07;95747.44;10517656;28;1567;-78
2021/01/14 21:14:48;;;;;;;;;;;-1.80;99.90;;;-2.88;87.22;95734.28;10526782;28;1332;-79
2021/01/14 21:19:51;;;;;;;;;;;-1.80;99.90;;;-2.91;88.31;95739.94;10554033;28;1980;-79
2021/01/14 21:24:53;;;;;;;;;;;-1.50;99.90;;;-2.90;88.35;95746.00;10541835;28;1449;-79
2021/01/14 21:29:55;;;;;;;;;;;0.00;99.90;;;-2.92;88.12;95724.34;10549532;28;1315;-78
2021/01/14 21:34:58;;;;;;;;;;;-1.70;99.90;;;-2.92;87.43;95733.03;10529734;28;1550;-78
2021/01/14 21:39:59;;;;;;;;;;;-1.80;99.90;;;-2.96;87.25;95716.00;10541850;28;1894;-79
2021/01/14 21:45:03;;;;;;;;;;;-1.80;99.90;;;-2.98;86.31;95712.75;10539931;28;1687;-79
2021/01/14 21:50:08;;;;;;;;;;;-1.80;99.90;;;-3.02;87.53;95716.78;10551426;28;2056;-79
2021/01/14 21:55:10;;;;;;;;;;;-0.40;99.90;;;-2.92;87.24;95716.44;10548745;28;1199;-78
2021/01/14 22:00:12;;;;;;;;;;;-1.80;99.90;;;-2.90;85.87;95714.44;10540038;28;1953;-77
2021/01/14 22:05:14;;;;;;;;;;;-1.80;99.90;;;-2.96;85.54;95708.13;10539019;28;2277;-78
2021/01/14 22:10:15;;;;;;;;;;;-1.90;99.90;;;-3.03;86.26;95709.88;10535592;28;2247;-79
2021/01/14 22:15:18;;;;;;;;;;;-1.90;99.90;;;-3.04;86.81;95708.25;10542959;28;2406;-79
2021/01/14 22:20:19;;;;;;;;;;;-1.90;99.90;;;-3.12;85.89;95701.31;10541157;28;2441;-80
2021/01/14 22:25:21;;;;;;;;;;;-1.70;99.90;;;-3.18;86.16;95712.63;10551365;28;2417;-81
2021/01/14 22:30:23;;;;;;;;;;;-2.00;99.90;;;-3.21;86.91;95717.41;10547732;28;2453;-80
2021/01/14 22:35:25;;;;;;;;;;;-2.10;99.90;;;-3.19;87.40;95697.00;10577530;28;2311;-80
2021/01/14 22:40:27;;;;;;;;;;;-0.60;99.90;;;-3.16;86.79;95709.78;10570288;28;2205;-83
2021/01/14 22:45:29;;;;;;;;;;;-2.10;99.90;;;-3.16;87.51;95691.38;10577286;28;2176;-81
2021/01/14 22:50:31;;;;;;;;;;;-2.10;99.90;;;-3.14;87.27;95687.53;10569922;28;2743;-80
2021/01/14 22:55:32;;;;;;;;;;;-0.50;99.90;;;-3.20;86.86;95682.22;10577538;28;2410;-80
2021/01/14 23:00:34;;;;;;;;;;;-2.00;99.90;;;-3.18;87.06;95677.59;10558315;28;2303;-80
2021/01/14 23:05:36;;;;;;;;;;;-1.10;99.90;;;-3.18;87.07;95669.69;10541658;28;2390;-79
2021/01/14 23:10:39;;;;;;;;;;;-1.30;99.90;;;-3.23;86.98;95672.13;10580356;28;2296;-80
2021/01/14 23:15:41;;;;;;;;;;;-2.10;99.90;;;-3.37;87.33;95669.38;10569046;28;2206;-81
2021/01/14 23:20:43;;;;;;;;;;;-0.80;99.90;;;-3.28;87.88;95664.78;10571720;28;2281;-81
2021/01/14 23:25:45;;;;;;;;;;;-2.20;99.90;;;-3.26;87.58;95653.06;10565334;28;2220;-80
2021/01/14 23:30:47;;;;;;;;;;;-2.10;99.90;;;-3.39;87.13;95652.16;10551345;28;2231;-79
2021/01/14 23:35:49;;;;;;;;;;;-1.90;99.90;;;-3.53;87.66;95651.22;10587520;28;2323;-81
2021/01/14 23:40:51;;;;;;;;;;;-0.20;99.90;;;-3.71;87.51;95653.50;10559870;28;2406;-79
2021/01/14 23:45:52;;;;;;;;;;;-1.00;99.90;;;-3.86;88.33;95654.38;10570267;28;2311;-78
2021/01/14 23:50:54;;;;;;;;;;;-1.20;99.90;;;-3.92;88.27;95652.47;10586827;28;2153;-78
2021/01/14 23:55:56;;;;;;;;;;;-2.20;99.90;;;-4.12;89.14;95647.03;10573563;28;1874;-79
